Terminal Aerodrome Forecast
Issued by NWS Brownsville, TX

Home | Current Version | Previous Version | Text Only | Print | Product List | Glossary On
Versions: 1 2 3 4 5 6 7 8 9 10 11 12 13 14 15 16
000
FTUS44 KBRO 060533
TAFBRO
TAF
KBRO 060533Z 0606/0706 14010KT P6SM FEW030
     FM061400 16020G25KT P6SM BKN025
     FM061700 15022G30KT P6SM FEW025 SCT035 BKN040
     FM062300 15018G22KT P6SM FEW018
     FM070500 14012KT P6SM SKC=

USA.gov is the U.S. government's official web portal to all federal, state and local government web resources and services.